createdAt,value
2023-03-21T00:00:34.527Z,13.00
2023-03-21T00:03:01.286Z,11.00
2023-03-21T00:05:28.010Z,12.85
2023-03-21T00:07:54.647Z,13.63
2023-03-21T00:10:33.079Z,12.95
2023-03-21T00:13:05.676Z,12.70
2023-03-21T00:15:42.585Z,13.10
2023-03-21T00:18:12.708Z,12.98
2023-03-21T00:20:39.175Z,11.55
2023-03-21T00:23:05.721Z,11.55
2023-03-21T00:25:33.028Z,11.75
2023-03-21T00:28:07.864Z,15.02
2023-03-21T00:30:34.670Z,11.27
2023-03-21T00:33:05.866Z,14.68
2023-03-21T00:36:06.505Z,13.48
2023-03-21T00:38:25.681Z,12.70
2023-03-21T00:40:52.366Z,12.32
2023-03-21T00:43:23.236Z,11.85
2023-03-21T00:45:51.321Z,16.00
2023-03-21T00:48:18.901Z,14.55
2023-03-21T00:50:47.111Z,12.60
2023-03-21T00:53:14.523Z,15.65
2023-03-21T00:55:41.187Z,14.63
2023-03-21T00:58:07.691Z,13.98
2023-03-21T01:00:36.875Z,14.43
2023-03-21T01:03:23.171Z,14.35
2023-03-21T01:06:06.834Z,16.90
2023-03-21T01:08:51.063Z,16.30
2023-03-21T01:11:21.523Z,15.85
2023-03-21T01:13:54.735Z,13.52
2023-03-21T01:16:26.748Z,15.38
2023-03-21T01:18:53.564Z,14.95
2023-03-21T01:21:20.403Z,14.07
2023-03-21T01:23:46.913Z,15.70
2023-03-21T01:26:14.077Z,17.70
2023-03-21T01:28:41.972Z,19.27
2023-03-21T01:31:09.705Z,15.98
2023-03-21T01:33:36.231Z,16.98
2023-03-21T01:36:12.973Z,15.98
2023-03-21T01:38:40.394Z,15.73
2023-03-21T01:41:18.625Z,16.65
2023-03-21T01:43:46.137Z,16.80
2023-03-21T01:46:22.532Z,18.17
2023-03-21T01:48:53.446Z,20.40
2023-03-21T01:51:20.386Z,20.10
2023-03-21T01:53:47.359Z,23.05
2023-03-21T01:56:19.212Z,23.45
2023-03-21T01:58:45.881Z,22.00
2023-03-21T02:01:12.553Z,22.42
2023-03-21T02:03:50.506Z,23.00
2023-03-21T02:06:47.150Z,22.35
2023-03-21T02:09:16.898Z,25.48
2023-03-21T02:11:46.483Z,26.52
2023-03-21T02:14:26.570Z,24.38
2023-03-21T02:19:50.983Z,24.65
2023-03-21T02:22:19.014Z,27.88
2023-03-21T02:25:21.853Z,23.35
2023-03-21T02:27:58.464Z,23.77
2023-03-21T02:30:51.330Z,24.90
2023-03-21T02:36:18.373Z,24.58
2023-03-21T02:39:08.562Z,27.55
2023-03-21T02:42:09.697Z,25.88
2023-03-21T02:44:50.257Z,23.88
2023-03-21T02:47:30.960Z,25.23
2023-03-21T02:50:12.849Z,24.30
2023-03-21T02:52:39.965Z,22.02
2023-03-21T02:55:13.734Z,25.92
2023-03-21T02:57:43.739Z,23.35
2023-03-21T03:00:17.062Z,25.35
2023-03-21T03:02:44.206Z,26.75
2023-03-21T03:05:21.906Z,28.20
2023-03-21T03:08:03.703Z,25.60
2023-03-21T03:10:33.159Z,28.77
2023-03-21T03:13:24.283Z,28.73
2023-03-21T03:16:16.815Z,26.55
2023-03-21T03:18:45.891Z,25.65
2023-03-21T03:21:20.094Z,26.35
2023-03-21T03:23:57.658Z,25.33
2023-03-21T03:26:28.465Z,27.58
2023-03-21T03:28:58.815Z,29.77
2023-03-21T03:31:33.908Z,28.65
2023-03-21T03:34:07.172Z,25.65
2023-03-21T03:36:38.978Z,27.13
2023-03-21T03:39:11.581Z,27.05
2023-03-21T03:42:05.959Z,26.63
2023-03-21T03:44:32.145Z,30.73
2023-03-21T03:47:03.032Z,30.90
2023-03-21T03:49:33.542Z,28.48
2023-03-21T03:52:05.396Z,31.33
2023-03-21T03:54:37.110Z,30.40
2023-03-21T03:57:04.578Z,27.33
2023-03-21T03:59:31.113Z,29.80
2023-03-21T04:01:57.603Z,29.65
2023-03-21T04:04:28.623Z,28.13
2023-03-21T04:06:57.917Z,26.60
2023-03-21T04:09:40.920Z,25.40
2023-03-21T04:12:09.942Z,24.35
2023-03-21T04:14:44.541Z,24.75
2023-03-21T04:17:12.770Z,28.52
2023-03-21T04:19:39.291Z,23.77
2023-03-21T04:22:05.939Z,30.27
2023-03-21T04:24:34.061Z,30.10
2023-03-21T04:27:00.900Z,25.10
2023-03-21T04:29:29.638Z,30.45
2023-03-21T04:31:56.688Z,25.58
2023-03-21T04:34:24.102Z,24.08
2023-03-21T04:36:50.846Z,24.73
2023-03-21T04:39:17.953Z,27.42
2023-03-21T04:41:46.268Z,31.42
2023-03-21T04:44:14.415Z,25.08
2023-03-21T04:46:41.036Z,23.83
2023-03-21T04:49:07.756Z,25.23
2023-03-21T04:51:35.255Z,26.60
2023-03-21T04:54:02.278Z,27.63
2023-03-21T04:56:34.141Z,26.90
2023-03-21T04:59:03.643Z,29.00
2023-03-21T05:01:30.818Z,26.00
2023-03-21T05:04:01.529Z,30.55
2023-03-21T05:06:28.526Z,28.25
2023-03-21T05:08:59.941Z,34.60
2023-03-21T05:11:32.892Z,28.70
2023-03-21T05:13:59.582Z,28.70
2023-03-21T05:16:30.456Z,29.52
2023-03-21T05:18:59.069Z,29.27
2023-03-21T05:21:29.427Z,27.60
2023-03-21T05:23:58.281Z,27.60
2023-03-21T05:26:24.979Z,30.10
2023-03-21T05:28:51.464Z,30.27
2023-03-21T05:31:18.592Z,30.20
2023-03-21T05:33:45.723Z,34.38
2023-03-21T05:36:12.957Z,31.50
2023-03-21T05:38:42.825Z,29.88
2023-03-21T05:41:09.282Z,30.75
2023-03-21T05:43:35.923Z,28.67
2023-03-21T05:46:02.442Z,32.25
2023-03-21T05:48:29.048Z,32.25
2023-03-21T05:50:55.626Z,31.33
2023-03-21T05:53:23.248Z,29.40
2023-03-21T05:55:49.874Z,31.60
2023-03-21T05:58:16.309Z,31.25
2023-03-21T06:00:42.794Z,27.63
2023-03-21T06:03:09.266Z,25.42
2023-03-21T06:05:35.872Z,28.20
2023-03-21T06:08:02.502Z,28.60
2023-03-21T06:10:28.972Z,28.50
2023-03-21T06:12:55.479Z,25.42
2023-03-21T06:15:22.098Z,27.98
2023-03-21T06:17:48.766Z,26.65
2023-03-21T06:20:15.421Z,26.52
2023-03-21T06:22:41.869Z,31.35
2023-03-21T06:25:08.773Z,26.17
2023-03-21T06:27:35.502Z,27.30
2023-03-21T06:30:02.260Z,27.80
2023-03-21T06:32:28.779Z,32.65
2023-03-21T06:34:55.408Z,29.13
2023-03-21T06:37:21.878Z,30.92
2023-03-21T06:39:48.378Z,28.73
2023-03-21T06:42:14.983Z,34.35
2023-03-21T06:44:41.772Z,27.30
2023-03-21T06:47:08.424Z,28.75
2023-03-21T06:49:34.950Z,28.92
2023-03-21T06:52:01.449Z,28.95
2023-03-21T06:54:28.040Z,27.95
2023-03-21T06:56:54.993Z,29.63
2023-03-21T06:59:22.189Z,27.75
2023-03-21T07:01:48.766Z,29.83
2023-03-21T07:04:15.273Z,26.25
2023-03-21T07:06:42.474Z,29.27
2023-03-21T07:09:09.007Z,30.98
2023-03-21T07:11:36.223Z,29.58
2023-03-21T07:14:02.717Z,28.02
2023-03-21T07:16:29.275Z,33.05
2023-03-21T07:18:56.215Z,29.08
2023-03-21T07:21:23.352Z,32.08
2023-03-21T07:23:50.386Z,29.52
2023-03-21T07:26:18.294Z,31.88
2023-03-21T07:28:45.507Z,31.27
2023-03-21T07:31:15.053Z,34.40
2023-03-21T07:33:41.714Z,30.20
2023-03-21T07:36:13.659Z,34.70
2023-03-21T07:38:41.169Z,32.13
2023-03-21T07:41:07.830Z,32.00
2023-03-21T07:43:35.358Z,34.72
2023-03-21T07:46:03.136Z,31.80
2023-03-21T07:48:30.184Z,30.30
2023-03-21T07:50:56.778Z,29.55
2023-03-21T07:53:23.213Z,30.52
2023-03-21T07:55:51.215Z,31.35
2023-03-21T07:58:17.717Z,31.17
2023-03-21T08:00:44.520Z,27.55
2023-03-21T08:03:11.387Z,30.35
2023-03-21T08:05:39.018Z,28.00
2023-03-21T08:08:06.627Z,32.50
2023-03-21T08:10:34.091Z,27.52
2023-03-21T08:13:00.743Z,33.30
2023-03-21T08:15:27.261Z,27.73
2023-03-21T08:17:53.762Z,26.20
2023-03-21T08:20:21.814Z,28.45
2023-03-21T08:22:48.586Z,28.38
2023-03-21T08:25:17.803Z,30.15
2023-03-21T08:27:45.647Z,28.30
2023-03-21T08:30:13.769Z,30.55
2023-03-21T08:32:42.231Z,29.50
2023-03-21T08:35:10.258Z,31.92
2023-03-21T08:37:37.927Z,28.65
2023-03-21T08:40:08.545Z,26.95
2023-03-21T08:45:01.994Z,24.10
2023-03-21T08:47:28.470Z,26.45
2023-03-21T08:49:56.011Z,26.52
2023-03-21T08:52:23.703Z,28.75
2023-03-21T08:54:50.173Z,26.52
2023-03-21T08:57:16.998Z,28.30
2023-03-21T08:59:43.584Z,24.17
2023-03-21T09:02:13.375Z,23.80
2023-03-21T09:04:40.561Z,25.30
2023-03-21T09:07:07.186Z,24.73
2023-03-21T09:09:33.646Z,25.23
2023-03-21T09:12:00.202Z,25.33
2023-03-21T09:14:28.888Z,24.23
2023-03-21T09:16:56.117Z,24.17
2023-03-21T09:19:22.610Z,23.33
2023-03-21T09:21:50.403Z,27.08
2023-03-21T09:24:18.174Z,23.70
2023-03-21T09:26:44.643Z,21.77
2023-03-21T09:29:11.386Z,28.40
2023-03-21T09:31:39.956Z,25.15
2023-03-21T09:34:06.986Z,25.38
2023-03-21T09:36:36.147Z,29.77
2023-03-21T09:39:04.082Z,27.83
2023-03-21T09:41:39.572Z,23.40
2023-03-21T09:44:09.640Z,25.33
2023-03-21T09:46:55.092Z,23.27
2023-03-21T09:49:31.724Z,26.95
2023-03-21T09:52:05.544Z,23.98
2023-03-21T09:54:37.866Z,24.48
2023-03-21T09:57:23.310Z,24.73
2023-03-21T09:59:53.587Z,27.65
2023-03-21T10:02:32.413Z,25.45
2023-03-21T10:05:00.694Z,26.77
2023-03-21T10:07:30.877Z,22.58
2023-03-21T10:09:59.710Z,22.45
2023-03-21T10:12:30.692Z,21.77
2023-03-21T10:14:59.329Z,25.80
2023-03-21T10:17:45.164Z,21.75
2023-03-21T10:20:21.855Z,22.30
2023-03-21T10:22:50.785Z,23.25
2023-03-21T10:25:21.343Z,23.98
2023-03-21T10:30:25.178Z,26.40
2023-03-21T10:32:51.694Z,21.75
2023-03-21T10:35:19.271Z,20.52
2023-03-21T10:37:46.668Z,19.63
2023-03-21T10:40:17.243Z,19.52
2023-03-21T10:45:19.980Z,17.75
2023-03-21T10:47:51.595Z,21.25
2023-03-21T10:50:20.524Z,18.15
2023-03-21T10:52:50.450Z,18.58
2023-03-21T10:55:17.520Z,19.85
2023-03-21T10:57:46.070Z,22.88
2023-03-21T11:00:20.762Z,18.38
2023-03-21T11:02:51.800Z,17.85
2023-03-21T11:05:27.967Z,21.23
2023-03-21T11:08:04.054Z,17.52
2023-03-21T11:10:36.907Z,18.42
2023-03-21T11:13:18.891Z,16.70
2023-03-21T11:15:56.159Z,17.77
2023-03-21T11:18:27.457Z,16.40
2023-03-21T11:20:59.823Z,15.27
2023-03-21T11:23:28.540Z,14.55
2023-03-21T11:25:55.677Z,15.52
2023-03-21T11:28:24.249Z,16.73
2023-03-21T11:30:54.246Z,17.05
2023-03-21T11:33:23.481Z,13.30
2023-03-21T11:36:09.934Z,14.52
2023-03-21T11:38:39.851Z,16.02
2023-03-21T11:41:07.034Z,15.80
2023-03-21T11:43:38.775Z,15.13
2023-03-21T11:46:06.841Z,14.80
2023-03-21T11:48:46.988Z,13.88
2023-03-21T11:51:25.716Z,17.88
2023-03-21T11:54:00.635Z,14.38
2023-03-21T11:56:36.418Z,14.02
2023-03-21T11:59:15.827Z,15.00
2023-03-21T12:01:50.487Z,13.13
2023-03-21T12:04:54.345Z,11.77
2023-03-21T12:07:39.006Z,12.45
2023-03-21T12:10:22.912Z,14.55
2023-03-21T12:13:05.635Z,15.27
2023-03-21T12:15:40.438Z,14.70
2023-03-21T12:18:41.247Z,11.45
2023-03-21T12:21:20.550Z,11.70
2023-03-21T12:24:34.678Z,10.90
2023-03-21T12:27:12.225Z,10.23
2023-03-21T12:29:41.509Z,14.07
2023-03-21T12:32:26.350Z,11.02
2023-03-21T12:35:24.360Z,10.88
2023-03-21T12:37:58.500Z,11.10
2023-03-21T12:40:47.749Z,8.88
2023-03-21T12:43:20.715Z,9.32
2023-03-21T12:45:50.703Z,10.82
2023-03-21T12:48:40.832Z,11.20
2023-03-21T12:51:12.428Z,8.30
2023-03-21T12:53:42.323Z,11.50
2023-03-21T12:56:17.229Z,12.95
2023-03-21T12:58:54.317Z,12.18
2023-03-21T13:01:22.107Z,9.60
2023-03-21T13:03:54.787Z,10.43
2023-03-21T13:06:22.975Z,9.45
2023-03-21T13:09:00.698Z,11.05
2023-03-21T13:11:29.307Z,10.60
2023-03-21T13:14:01.912Z,11.90
2023-03-21T13:16:34.244Z,10.35
2023-03-21T13:19:09.935Z,9.32
2023-03-21T13:21:49.378Z,8.05
2023-03-21T13:24:23.901Z,10.38
2023-03-21T13:27:00.743Z,9.45
2023-03-21T13:29:28.893Z,14.27
2023-03-21T13:32:00.644Z,10.50
2023-03-21T13:34:29.296Z,10.30
2023-03-21T13:36:56.539Z,10.70
2023-03-21T13:39:28.608Z,11.77
2023-03-21T13:41:55.579Z,11.45
2023-03-21T13:44:33.422Z,13.70
2023-03-21T13:47:01.606Z,11.20
2023-03-21T13:49:32.830Z,13.13
2023-03-21T13:52:01.048Z,11.27
2023-03-21T13:54:51.038Z,9.10
2023-03-21T13:57:29.366Z,10.85
2023-03-21T14:00:27.729Z,10.10
2023-03-21T14:03:14.998Z,10.50
2023-03-21T14:05:42.085Z,10.23
2023-03-21T14:08:17.239Z,9.60
2023-03-21T14:10:53.992Z,9.23
2023-03-21T14:13:22.619Z,8.20
2023-03-21T14:15:56.293Z,10.25
2023-03-21T14:18:52.195Z,8.80
2023-03-21T14:21:26.334Z,9.02
2023-03-21T14:24:04.988Z,9.43
2023-03-21T14:26:36.984Z,7.70
2023-03-21T14:29:22.871Z,6.57
2023-03-21T14:31:51.791Z,9.32
2023-03-21T14:34:18.691Z,10.20
2023-03-21T14:36:51.735Z,7.47
2023-03-21T14:39:33.687Z,6.35
2023-03-21T14:42:08.153Z,9.75
2023-03-21T14:44:54.501Z,9.80
2023-03-21T14:47:29.114Z,7.22
2023-03-21T14:49:56.569Z,10.00
2023-03-21T14:52:29.593Z,9.32
2023-03-21T14:54:56.315Z,7.97
2023-03-21T14:57:29.051Z,7.88
2023-03-21T14:59:59.185Z,9.60
2023-03-21T15:02:29.009Z,10.57
2023-03-21T15:04:57.974Z,9.60
2023-03-21T15:07:34.737Z,8.60
2023-03-21T15:10:05.443Z,11.75
2023-03-21T15:12:32.491Z,7.82
2023-03-21T15:15:00.177Z,8.77
2023-03-21T15:17:26.869Z,6.82
2023-03-21T15:19:53.367Z,8.55
2023-03-21T15:22:39.165Z,8.32
2023-03-21T15:25:08.374Z,9.13
2023-03-21T15:27:39.793Z,10.65
2023-03-21T15:30:07.090Z,9.07
2023-03-21T15:32:35.861Z,13.35
2023-03-21T15:35:07.993Z,8.82
2023-03-21T15:37:36.760Z,10.55
2023-03-21T15:40:25.887Z,8.80
2023-03-21T15:43:17.377Z,10.32
2023-03-21T15:46:01.993Z,10.70
2023-03-21T15:48:29.529Z,8.63
2023-03-21T15:51:03.681Z,9.65
2023-03-21T15:53:33.306Z,7.28
2023-03-21T15:56:05.863Z,10.07
2023-03-21T15:58:39.251Z,9.52
2023-03-21T16:01:08.306Z,10.13
2023-03-21T16:03:40.530Z,10.63
2023-03-21T16:06:14.303Z,8.88
2023-03-21T16:08:47.680Z,12.13
2023-03-21T16:11:16.634Z,9.07
2023-03-21T16:13:43.154Z,10.00
2023-03-21T16:16:19.958Z,10.00
2023-03-21T16:18:48.225Z,11.15
2023-03-21T16:21:16.980Z,8.70
2023-03-21T16:23:43.684Z,8.05
2023-03-21T16:26:13.114Z,10.07
2023-03-21T16:28:39.645Z,11.60
2023-03-21T16:31:06.433Z,13.32
2023-03-21T16:33:32.912Z,9.52
2023-03-21T16:36:00.743Z,13.40
2023-03-21T16:38:27.450Z,11.30
2023-03-21T16:40:53.912Z,11.23
2023-03-21T16:43:20.801Z,8.88
2023-03-21T16:45:47.294Z,10.90
2023-03-21T16:48:17.754Z,10.55
2023-03-21T16:50:47.826Z,11.07
2023-03-21T16:53:14.407Z,12.25
2023-03-21T16:55:40.992Z,12.00
2023-03-21T16:58:07.492Z,15.23
2023-03-21T17:00:34.207Z,11.80
2023-03-21T17:03:02.747Z,12.07
2023-03-21T17:05:30.833Z,14.05
2023-03-21T17:08:01.990Z,13.63
2023-03-21T17:10:30.745Z,12.98
2023-03-21T17:12:57.365Z,12.95
2023-03-21T17:15:23.957Z,14.65
2023-03-21T17:17:55.728Z,17.52
2023-03-21T17:20:29.833Z,18.00
2023-03-21T17:22:56.372Z,15.25
2023-03-21T17:25:23.287Z,15.75
2023-03-21T17:27:53.001Z,14.65
2023-03-21T17:30:21.759Z,16.88
2023-03-21T17:32:49.792Z,15.80
2023-03-21T17:35:16.678Z,17.13
2023-03-21T17:37:50.016Z,16.58
2023-03-21T17:40:31.256Z,16.73
2023-03-21T17:42:59.289Z,18.80
2023-03-21T17:45:26.161Z,18.23
2023-03-21T17:47:54.825Z,16.55
2023-03-21T17:50:24.105Z,18.13
2023-03-21T17:52:51.203Z,18.55
2023-03-21T17:55:20.982Z,19.33
2023-03-21T17:57:48.517Z,21.77
2023-03-21T18:00:22.733Z,20.33
2023-03-21T18:02:50.106Z,16.52
2023-03-21T18:05:16.801Z,19.30
2023-03-21T18:10:31.633Z,17.25
2023-03-21T18:12:58.952Z,15.43
2023-03-21T18:15:30.236Z,21.45
2023-03-21T18:17:57.398Z,19.63
2023-03-21T18:20:44.656Z,16.55
2023-03-21T18:23:14.086Z,16.15
2023-03-21T18:25:41.742Z,18.38
2023-03-21T18:28:11.888Z,19.00
2023-03-21T18:31:00.801Z,18.27
2023-03-21T18:33:27.393Z,17.85
2023-03-21T18:35:58.985Z,20.92
2023-03-21T18:38:26.416Z,18.98
2023-03-21T18:40:53.153Z,21.23
2023-03-21T18:46:07.257Z,16.17
2023-03-21T18:48:35.145Z,20.38
2023-03-21T18:51:02.427Z,17.38
2023-03-21T18:53:29.752Z,18.98
2023-03-21T18:55:56.205Z,15.25
2023-03-21T18:58:22.950Z,16.08
2023-03-21T19:00:50.411Z,17.77
2023-03-21T19:03:30.181Z,16.63
2023-03-21T19:06:00.764Z,16.77
2023-03-21T19:08:27.515Z,21.23
2023-03-21T19:10:53.992Z,20.08
2023-03-21T19:13:20.667Z,17.30
2023-03-21T19:15:49.556Z,16.10
2023-03-21T19:18:37.895Z,21.30
2023-03-21T19:21:03.512Z,19.15
2023-03-21T19:23:40.874Z,21.10
2023-03-21T19:26:16.808Z,21.70
2023-03-21T19:28:43.391Z,20.10
2023-03-21T19:31:09.865Z,22.30
2023-03-21T19:33:36.852Z,19.77
2023-03-21T19:36:17.587Z,22.83
2023-03-21T19:38:44.840Z,22.20
2023-03-21T19:41:11.318Z,22.30
2023-03-21T19:43:40.027Z,21.75
2023-03-21T19:46:08.280Z,23.10
2023-03-21T19:48:38.448Z,22.23
2023-03-21T19:51:26.804Z,23.63
2023-03-21T19:53:51.820Z,25.48
2023-03-21T19:56:23.048Z,27.38
2023-03-21T19:58:52.698Z,24.63
2023-03-21T20:01:19.193Z,26.63
2023-03-21T20:03:45.917Z,26.98
2023-03-21T20:06:12.871Z,25.42
2023-03-21T20:11:25.802Z,23.58
2023-03-21T20:13:52.247Z,23.95
2023-03-21T20:16:20.434Z,25.95
2023-03-21T20:18:47.112Z,27.98
2023-03-21T20:21:17.922Z,27.10
2023-03-21T20:23:50.736Z,27.05
2023-03-21T20:26:17.520Z,26.20
2023-03-21T20:28:56.627Z,28.23
2023-03-21T20:31:32.280Z,24.20
2023-03-21T20:33:58.830Z,32.22
2023-03-21T20:36:42.973Z,27.80
2023-03-21T20:39:09.892Z,27.70
2023-03-21T20:41:36.838Z,26.88
2023-03-21T20:46:50.362Z,25.42
2023-03-21T20:49:16.871Z,26.63
2023-03-21T20:54:30.406Z,31.00
2023-03-21T20:56:57.254Z,32.20
2023-03-21T20:59:27.657Z,32.78
2023-03-21T21:01:57.845Z,28.00
2023-03-21T21:04:46.897Z,27.92
2023-03-21T21:07:15.826Z,27.40
2023-03-21T21:09:45.976Z,27.42
2023-03-21T21:12:14.618Z,31.00
2023-03-21T21:14:42.356Z,30.50
2023-03-21T21:17:54.183Z,34.85
2023-03-21T21:19:56.436Z,31.35
2023-03-21T21:22:22.976Z,32.47
2023-03-21T21:24:49.447Z,30.02
2023-03-21T21:27:15.872Z,32.90
2023-03-21T21:29:43.281Z,34.20
2023-03-21T21:32:10.008Z,34.05
2023-03-21T21:34:37.384Z,32.20
2023-03-21T21:37:03.844Z,34.90
2023-03-21T21:39:35.910Z,31.70
2023-03-21T21:42:02.678Z,34.92
2023-03-21T21:44:29.284Z,32.08
2023-03-21T21:46:57.423Z,33.95
2023-03-21T21:49:24.025Z,33.47
2023-03-21T21:51:50.672Z,34.83
2023-03-21T21:54:20.231Z,32.42
2023-03-21T21:56:48.448Z,36.20
2023-03-21T21:59:18.574Z,31.92
2023-03-21T22:01:46.678Z,37.17
2023-03-21T22:04:14.374Z,32.95
2023-03-21T22:06:42.213Z,31.23
2023-03-21T22:09:08.903Z,36.67
2023-03-21T22:11:35.790Z,31.77
2023-03-21T22:14:03.027Z,32.85
2023-03-21T22:16:29.588Z,33.53
2023-03-21T22:18:56.151Z,32.97
2023-03-21T22:21:22.719Z,32.30
2023-03-21T22:23:49.239Z,33.15
2023-03-21T22:26:15.818Z,36.08
2023-03-21T22:28:43.525Z,36.33
2023-03-21T22:31:12.806Z,35.58
2023-03-21T22:33:39.337Z,34.47
2023-03-21T22:36:06.111Z,37.05
2023-03-21T22:38:34.598Z,36.58
2023-03-21T22:41:02.884Z,32.60
2023-03-21T22:43:29.866Z,31.65
2023-03-21T22:45:56.494Z,32.72
2023-03-21T22:48:23.190Z,34.88
2023-03-21T22:50:49.691Z,32.88
2023-03-21T22:53:16.218Z,36.15
2023-03-21T22:55:42.760Z,35.53
2023-03-21T22:58:09.222Z,36.75
2023-03-21T23:00:35.696Z,32.53
2023-03-21T23:03:02.139Z,31.20
2023-03-21T23:05:28.703Z,29.08
2023-03-21T23:07:55.173Z,32.53
2023-03-21T23:10:21.653Z,28.05
2023-03-21T23:12:48.679Z,30.15
2023-03-21T23:15:15.159Z,27.08
2023-03-21T23:17:44.098Z,31.90
2023-03-21T23:20:10.949Z,28.52
2023-03-21T23:22:37.432Z,32.67
2023-03-21T23:25:04.335Z,24.92
2023-03-21T23:27:30.847Z,27.10
2023-03-21T23:29:57.312Z,28.17
2023-03-21T23:32:24.002Z,31.15
2023-03-21T23:34:50.712Z,28.55
2023-03-21T23:37:17.164Z,26.20
2023-03-21T23:39:45.201Z,26.52
2023-03-21T23:42:11.802Z,25.38
2023-03-21T23:44:38.304Z,25.80
2023-03-21T23:47:04.797Z,24.45
2023-03-21T23:49:33.747Z,25.48
2023-03-21T23:52:00.272Z,25.08
2023-03-21T23:54:26.716Z,29.73
2023-03-21T23:56:53.160Z,27.80
2023-03-21T23:59:19.644Z,24.75
